Time;durP1;ratioP1;P1;durP2;ratioP2;P2;SDS_P1;SDS_P2;PMS_P1;PMS_P2;Temp;Humidity;BMP_temperature;BMP_pressure;BME280_temperature;BME280_humidity;BME280_pressure;Samples;Min_cycle;Max_cycle;Signal;HPM_P1;HPM_P2
2022/06/23 00:01:21;;;;;;;4.10;2.20;;;21.00;97.70;;;;;;4935436;29;20548;-75
2022/06/23 00:03:52;;;;;;;6.88;2.20;;;21.00;98.20;;;;;;4935619;29;20028;-75
2022/06/23 00:06:43;;;;;;;4.53;2.28;;;20.90;98.40;;;;;;4935140;29;20023;-75
2022/06/23 00:09:34;;;;;;;7.18;2.70;;;20.90;98.90;;;;;;4934104;29;20050;-75
2022/06/23 00:12:18;;;;;;;3.92;2.10;;;21.00;99.00;;;;;;4917132;29;20063;-75
2022/06/23 00:14:46;;;;;;;7.82;2.67;;;20.90;99.20;;;;;;4916841;29;20036;-75
2022/06/23 00:17:28;;;;;;;6.55;2.65;;;20.90;99.30;;;;;;4935067;29;20498;-75
2022/06/23 00:19:54;;;;;;;;;;;20.80;99.20;;;;;;4934464;29;20042;-75
2022/06/23 00:22:24;;;;;;;7.35;2.17;;;20.70;99.90;;;;;;4927118;29;19921;-75
2022/06/23 00:24:55;;;;;;;5.68;2.90;;;20.70;99.90;;;;;;4916719;29;20075;-75
2022/06/23 00:27:22;;;;;;;9.93;3.20;;;20.70;99.90;;;;;;4933258;29;20111;-75
2022/06/23 00:29:48;;;;;;;6.68;2.83;;;20.80;99.90;;;;;;4935870;29;20023;-75
2022/06/23 00:32:15;;;;;;;9.13;3.30;;;20.70;99.90;;;;;;4964827;28;20063;-75
2022/06/23 00:34:44;;;;;;;5.10;2.90;;;20.60;99.90;;;;;;4926729;29;20149;-75
2022/06/23 00:37:09;;;;;;;6.45;3.38;;;20.60;99.90;;;;;;4927996;29;20060;-75
2022/06/23 00:39:53;;;;;;;6.47;3.80;;;20.40;99.90;;;;;;4930874;29;20044;-75
2022/06/23 00:42:22;;;;;;;9.00;4.03;;;20.50;99.90;;;;;;4915972;29;20032;-74
2022/06/23 00:44:57;;;;;;;5.60;3.80;;;20.40;99.90;;;;;;4914797;29;20030;-75
2022/06/23 00:47:37;;;;;;;8.02;3.97;;;20.40;99.90;;;;;;4932887;29;20545;-75
2022/06/23 00:50:22;;;;;;;8.98;3.63;;;20.20;99.90;;;;;;4935358;29;20071;-75
2022/06/23 00:52:54;;;;;;;10.00;4.35;;;20.10;99.90;;;;;;4934914;29;20026;-75
2022/06/23 00:55:27;;;;;;;7.47;3.88;;;20.10;99.90;;;;;;4921162;29;20032;-75
2022/06/23 00:57:59;;;;;;;6.88;3.10;;;20.20;99.90;;;;;;4921676;29;20098;-75
2022/06/23 01:00:33;;;;;;;7.75;3.65;;;20.20;99.90;;;;;;4934688;29;20035;-75
2022/06/23 01:03:12;;;;;;;7.28;3.60;;;20.20;99.90;;;;;;4919053;29;20107;-75
2022/06/23 01:06:05;;;;;;;7.03;3.25;;;20.30;99.90;;;;;;4916218;29;20027;-75
2022/06/23 01:08:59;;;;;;;5.85;2.90;;;20.10;99.90;;;;;;4916852;29;20024;-75
2022/06/23 01:11:48;;;;;;;7.22;3.00;;;20.20;99.90;;;;;;4900934;29;20541;-75
2022/06/23 01:14:16;;;;;;;7.60;3.15;;;20.20;99.90;;;;;;4897439;29;20471;-75
2022/06/23 01:17:01;;;;;;;4.25;2.65;;;20.10;99.90;;;;;;4927343;29;20075;-75
2022/06/23 01:19:45;;;;;;;12.05;2.92;;;19.90;99.90;;;;;;4923563;29;20052;-75
2022/06/23 01:22:30;;;;;;;4.07;2.70;;;19.80;99.90;;;;;;4897080;29;20517;-75
2022/06/23 01:25:16;;;;;;;9.68;3.13;;;19.70;99.90;;;;;;4914581;29;20079;-75
2022/06/23 01:28:09;;;;;;;4.90;2.90;;;19.70;99.90;;;;;;4934708;29;20055;-75
2022/06/23 01:31:03;;;;;;;5.57;2.90;;;19.80;99.90;;;;;;4925966;29;20032;-75
2022/06/23 01:33:47;;;;;;;5.00;2.85;;;19.80;99.90;;;;;;4893962;29;20044;-74
2022/06/23 01:36:19;;;;;;;5.13;2.50;;;19.70;99.90;;;;;;4897568;29;20111;-75
2022/06/23 01:39:02;;;;;;;6.30;2.67;;;19.70;99.90;;;;;;4932251;29;20576;-75
2022/06/23 01:41:43;;;;;;;13.02;3.30;;;19.80;99.90;;;;;;4917486;29;20066;-75
2022/06/23 01:44:26;;;;;;;4.38;2.45;;;19.90;99.90;;;;;;4918658;29;20028;-75
2022/06/23 01:46:55;;;;;;;4.47;2.60;;;19.90;99.90;;;;;;4911204;29;20031;-75
2022/06/23 01:49:28;;;;;;;9.23;3.10;;;20.00;99.90;;;;;;4937760;29;20020;-75
2022/06/23 01:52:16;;;;;;;7.88;3.40;;;19.80;99.90;;;;;;4937955;29;20490;-75
2022/06/23 01:54:43;;;;;;;9.93;2.97;;;19.90;99.90;;;;;;4937828;28;20055;-75
2022/06/23 01:57:09;;;;;;;5.03;2.95;;;20.00;99.90;;;;;;4937774;29;20028;-75
2022/06/23 01:59:40;;;;;;;4.97;2.85;;;19.90;99.90;;;;;;4937427;29;20119;-75
2022/06/23 02:02:18;;;;;;;6.15;3.20;;;19.80;99.90;;;;;;4930650;29;20032;-75
2022/06/23 02:05:17;;;;;;;8.25;3.00;;;19.90;99.90;;;;;;4920471;29;20498;-75
2022/06/23 02:07:51;;;;;;;7.88;3.28;;;19.80;99.90;;;;;;4931482;29;20478;-75
2022/06/23 02:10:33;;;;;;;8.27;3.30;;;19.70;99.90;;;;;;4936574;29;20063;-75
2022/06/23 02:13:02;;;;;;;6.05;2.95;;;19.70;99.90;;;;;;4937434;29;20389;-75
2022/06/23 02:15:37;;;;;;;9.82;3.20;;;19.70;99.90;;;;;;4937795;29;20420;-75
2022/06/23 02:18:21;;;;;;;5.30;3.25;;;19.50;99.90;;;;;;4937780;29;20055;-75
2022/06/23 02:21:14;;;;;;;8.70;3.33;;;19.50;99.90;;;;;;4936064;29;20118;-75
2022/06/23 02:24:07;;;;;;;10.65;3.17;;;19.50;99.90;;;;;;4937931;29;20035;-75
2022/06/23 02:26:55;;;;;;;9.63;3.42;;;19.50;99.90;;;;;;4935515;29;20481;-75
2022/06/23 02:30:04;;;;;;;7.95;3.20;;;19.50;99.90;;;;;;4897964;29;20064;-75
2022/06/23 02:32:42;;;;;;;8.63;3.15;;;19.60;99.90;;;;;;4870997;29;20188;-74
2022/06/23 02:35:34;;;;;;;9.88;2.97;;;19.70;99.90;;;;;;4895017;29;20124;-74
2022/06/23 02:38:04;;;;;;;5.25;3.17;;;19.50;99.90;;;;;;4896748;29;20037;-75
2022/06/23 02:40:43;;;;;;;7.10;3.05;;;19.60;99.90;;;;;;4897487;29;20045;-75
2022/06/23 02:43:10;;;;;;;12.82;3.63;;;19.50;99.90;;;;;;4896822;29;20021;-75
2022/06/23 02:46:03;;;;;;;5.63;3.35;;;19.40;99.90;;;;;;4905899;29;20040;-75
2022/06/23 02:48:50;;;;;;;8.85;3.15;;;19.60;99.90;;;;;;4896776;29;20028;-75
2022/06/23 02:51:26;;;;;;;17.40;3.13;;;19.50;99.90;;;;;;4896752;29;20044;-75
2022/06/23 02:53:57;;;;;;;6.13;3.17;;;19.30;99.90;;;;;;4896104;29;20037;-74
2022/06/23 02:56:43;;;;;;;8.95;3.45;;;19.30;99.90;;;;;;4896379;29;20040;-75
2022/06/23 02:59:30;;;;;;;12.77;3.75;;;19.40;99.90;;;;;;4896835;29;20059;-75
2022/06/23 03:02:20;;;;;;;9.55;3.05;;;19.30;99.90;;;;;;4896841;29;20060;-75
2022/06/23 03:05:04;;;;;;;4.57;3.28;;;19.30;99.90;;;;;;4890032;29;20120;-74
2022/06/23 03:07:49;;;;;;;7.15;3.35;;;19.20;99.90;;;;;;4917119;29;20075;-75
2022/06/23 03:10:49;;;;;;;7.32;3.50;;;19.20;99.90;;;;;;4917692;29;20083;-75
2022/06/23 03:13:53;;;;;;;8.70;3.50;;;19.20;99.90;;;;;;4915794;29;20048;-75
2022/06/23 03:16:28;;;;;;;7.00;3.63;;;19.20;99.90;;;;;;4932005;29;20123;-75
2022/06/23 03:18:59;;;;;;;6.78;3.25;;;19.20;99.90;;;;;;4935949;29;20067;-75
2022/06/23 03:21:50;;;;;;;8.35;3.38;;;19.30;99.90;;;;;;4935262;29;20043;-75
2022/06/23 03:24:37;;;;;;;6.80;3.22;;;19.30;99.90;;;;;;4936535;29;20031;-75
2022/06/23 03:27:25;;;;;;;6.70;3.08;;;19.30;99.90;;;;;;4928343;29;20025;-75
2022/06/23 03:30:00;;;;;;;9.10;3.90;;;19.20;99.90;;;;;;4911902;29;20505;-75
2022/06/23 03:32:41;;;;;;;7.55;3.20;;;19.20;99.90;;;;;;4917274;29;20036;-75
2022/06/23 03:35:34;;;;;;;7.80;2.88;;;19.10;99.90;;;;;;4929542;29;20031;-75
2022/06/23 03:38:10;;;;;;;5.25;3.70;;;19.10;99.90;;;;;;4936093;29;20079;-75
2022/06/23 03:43:32;;;;;;;9.80;3.83;;;19.10;99.90;;;;;;4934476;29;20079;-75
2022/06/23 03:46:06;;;;;;;9.10;3.78;;;19.10;99.90;;;;;;4916772;29;20039;-75
2022/06/23 03:49:16;;;;;;;11.13;4.15;;;19.10;99.90;;;;;;4915665;29;20488;-75
2022/06/23 03:51:56;;;;;;;6.07;3.58;;;19.20;99.90;;;;;;4917206;29;20110;-75
2022/06/23 03:54:23;;;;;;;8.23;3.72;;;19.20;99.90;;;;;;4915275;29;20071;-75
2022/06/23 03:57:07;;;;;;;5.80;3.75;;;19.20;99.90;;;;;;4926408;29;20071;-75
2022/06/23 04:00:17;;;;;;;7.55;3.42;;;19.20;99.90;;;;;;4936031;29;20107;-75
2022/06/23 04:02:46;;;;;;;7.95;3.60;;;19.20;99.90;;;;;;4920364;29;20048;-75
2022/06/23 04:05:27;;;;;;;7.80;3.50;;;19.20;99.90;;;;;;4921741;29;20544;-75
2022/06/23 04:08:01;;;;;;;6.50;3.90;;;19.30;99.90;;;;;;4934727;29;20032;-75
2022/06/23 04:10:45;;;;;;;10.48;4.03;;;19.30;99.90;;;;;;4921594;29;20048;-75
2022/06/23 04:13:29;;;;;;;6.65;3.75;;;19.30;99.90;;;;;;4916661;29;20174;-75
2022/06/23 04:16:03;;;;;;;4.03;2.97;;;19.30;99.90;;;;;;4926697;29;20481;-76
2022/06/23 04:18:31;;;;;;;6.80;3.28;;;19.20;99.90;;;;;;4930190;29;20036;-75
2022/06/23 04:21:03;;;;;;;8.25;3.40;;;19.10;99.90;;;;;;4928150;29;20024;-76
2022/06/23 04:23:33;;;;;;;6.75;4.07;;;19.20;99.90;;;;;;4928562;29;20028;-76
2022/06/23 04:26:05;;;;;;;11.23;4.25;;;19.10;99.90;;;;;;4927390;29;20374;-80
2022/06/23 04:29:05;;;;;;;7.00;4.03;;;19.10;99.90;;;;;;4927948;29;20086;-74
2022/06/23 04:31:33;;;;;;;6.90;4.00;;;19.20;99.90;;;;;;4926890;29;20019;-76
2022/06/23 04:34:01;;;;;;;9.75;4.03;;;19.20;99.90;;;;;;4926332;29;20493;-75
2022/06/23 04:36:33;;;;;;;13.80;4.28;;;19.20;99.90;;;;;;4920536;29;20023;-75
2022/06/23 04:39:42;;;;;;;6.97;4.00;;;19.20;99.90;;;;;;4918720;29;20035;-75
2022/06/23 04:42:13;;;;;;;9.52;4.10;;;19.40;99.90;;;;;;4922940;29;20493;-73
2022/06/23 04:44:45;;;;;;;9.38;3.67;;;19.20;99.90;;;;;;4921512;29;20544;-75
2022/06/23 04:47:19;;;;;;;12.77;4.65;;;19.30;99.90;;;;;;4924483;29;20727;-75
2022/06/23 04:49:56;;;;;;;6.30;4.07;;;19.40;99.90;;;;;;4924350;29;20023;-75
2022/06/23 04:52:38;;;;;;;8.20;4.18;;;19.50;99.90;;;;;;4927128;29;20031;-75
2022/06/23 04:55:25;;;;;;;9.85;3.83;;;19.50;99.90;;;;;;4930879;29;20040;-75
2022/06/23 04:58:12;;;;;;;8.63;4.10;;;19.50;99.90;;;;;;4913165;29;20064;-73
2022/06/23 05:00:38;;;;;;;8.98;4.22;;;19.50;99.90;;;;;;4913285;29;20092;-74
2022/06/23 05:03:18;;;;;;;10.40;4.45;;;19.60;99.90;;;;;;4915448;29;20020;-75
2022/06/23 05:05:44;;;;;;;9.65;3.63;;;19.50;99.90;;;;;;4930521;29;20040;-74
2022/06/23 05:08:26;;;;;;;7.22;3.78;;;19.50;99.90;;;;;;4934355;29;20024;-74
2022/06/23 05:11:05;;;;;;;6.93;4.40;;;19.50;99.90;;;;;;4929759;29;20056;-74
2022/06/23 05:13:43;;;;;;;8.05;3.65;;;19.60;99.90;;;;;;4923362;29;20036;-74
2022/06/23 05:16:36;;;;;;;9.32;3.67;;;19.50;99.90;;;;;;4923523;29;20031;-73
2022/06/23 14:23:32;;;;;;;8.52;1.48;;;29.70;60.40;;;;;;4993509;23;20135;-72
2022/06/23 14:26:16;;;;;;;4.22;1.25;;;29.70;61.40;;;;;;4937465;29;20040;-72
2022/06/23 14:28:57;;;;;;;3.28;0.93;;;29.80;62.00;;;;;;4937128;29;20032;-72
2022/06/23 14:31:31;;;;;;;4.55;1.02;;;29.80;60.80;;;;;;4937199;29;20040;-72
2022/06/23 14:34:16;;;;;;;3.47;1.00;;;29.80;61.10;;;;;;4935627;29;20031;-72
2022/06/23 14:36:57;;;;;;;8.15;1.42;;;29.80;60.90;;;;;;4926931;29;20031;-72
2022/06/23 14:39:41;;;;;;;3.47;0.95;;;29.20;61.10;;;;;;4918220;29;20478;-73
2022/06/23 14:42:13;;;;;;;5.13;1.10;;;28.90;61.00;;;;;;4932144;29;20044;-72
2022/06/23 14:44:53;;;;;;;6.93;1.08;;;29.30;60.40;;;;;;4937472;29;20028;-73
2022/06/23 14:47:24;;;;;;;4.18;0.90;;;29.30;60.60;;;;;;4936595;29;20023;-72
2022/06/23 14:50:08;;;;;;;;;;;29.80;60.60;;;;;;4936562;29;20107;-73
2022/06/23 14:52:53;;;;;;;5.82;1.02;;;30.00;59.60;;;;;;4937170;29;20315;-72
2022/06/23 14:55:45;;;;;;;4.07;1.40;;;30.10;58.80;;;;;;4935406;29;20548;-72
2022/06/23 14:58:21;;;;;;;2.40;1.08;;;30.30;59.10;;;;;;4936986;29;20056;-72
2022/06/23 15:01:07;;;;;;;4.38;1.20;;;29.80;59.00;;;;;;4936935;29;20039;-72
2022/06/23 15:03:41;;;;;;;7.60;1.10;;;29.70;60.10;;;;;;4936760;29;20031;-72
2022/06/23 15:06:07;;;;;;;4.88;1.20;;;29.70;59.60;;;;;;4936954;29;20399;-72
2022/06/23 15:08:57;;;;;;;3.20;1.05;;;29.10;59.40;;;;;;4936734;29;20031;-72
2022/06/23 15:11:38;;;;;;;7.32;1.67;;;28.90;60.40;;;;;;4936524;29;20488;-72
2022/06/23 15:14:31;;;;;;;2.92;0.95;;;28.80;60.10;;;;;;4936960;29;20053;-72
2022/06/23 15:17:28;;;;;;;3.00;1.10;;;29.20;60.00;;;;;;4936239;29;20031;-72
2022/06/23 15:19:59;;;;;;;3.30;1.25;;;29.20;59.30;;;;;;4936681;29;20437;-72
2022/06/23 15:23:10;;;;;;;2.55;0.80;;;29.70;60.00;;;;;;4927784;29;20052;-72
2022/06/23 15:25:48;;;;;;;3.67;0.93;;;29.60;60.00;;;;;;4936994;29;20110;-72
2022/06/23 15:28:55;;;;;;;2.65;1.02;;;29.40;58.80;;;;;;4936071;29;20540;-72
2022/06/23 15:31:24;;;;;;;4.28;1.27;;;29.60;59.00;;;;;;4878882;29;20159;-72
2022/06/23 15:34:01;;;;;;;2.22;0.93;;;29.30;59.40;;;;;;4877998;29;20025;-72
2022/06/23 15:36:52;;;;;;;3.83;1.00;;;28.60;59.40;;;;;;4894113;29;20052;-72
2022/06/23 15:39:29;;;;;;;;;;;28.50;60.80;;;;;;4889554;29;20030;-72
2022/06/23 15:42:06;;;;;;;3.00;0.98;;;28.40;60.70;;;;;;4877522;29;19919;-72
2022/06/23 15:44:44;;;;;;;3.70;1.00;;;28.40;60.60;;;;;;4877623;29;20124;-72
2022/06/23 15:47:39;;;;;;;5.68;1.10;;;28.30;60.70;;;;;;4877567;29;20037;-72
2022/06/23 15:50:13;;;;;;;8.05;1.25;;;28.20;60.80;;;;;;4887562;29;20494;-72
2022/06/23 15:52:51;;;;;;;4.53;1.30;;;28.00;61.40;;;;;;4896104;29;20110;-72
2022/06/23 15:55:33;;;;;;;7.82;1.20;;;28.30;61.50;;;;;;4872794;29;20126;-73
2022/06/23 15:58:43;;;;;;;4.28;1.08;;;28.10;62.30;;;;;;4861250;29;20024;-72
2022/06/23 16:01:31;;;;;;;2.15;0.75;;;27.90;62.00;;;;;;4876918;29;20488;-72
2022/06/23 16:03:57;;;;;;;7.35;1.40;;;27.70;61.80;;;;;;4917012;29;20103;-72
2022/06/23 16:06:33;;;;;;;4.22;1.15;;;27.70;62.00;;;;;;4917019;29;20398;-72
2022/06/23 16:09:06;;;;;;;3.03;0.85;;;27.60;62.30;;;;;;4917052;29;20103;-72
2022/06/23 16:11:49;;;;;;;6.55;1.73;;;27.50;61.50;;;;;;4925377;29;20163;-72
2022/06/23 16:14:25;;;;;;;3.58;0.80;;;27.40;61.70;;;;;;4911989;29;20537;-74
2022/06/23 16:17:13;;;;;;;2.90;0.95;;;27.50;61.90;;;;;;4897676;29;20032;-72
2022/06/23 16:19:51;;;;;;;3.33;0.90;;;27.30;62.40;;;;;;4898055;29;20033;-72
2022/06/23 16:22:21;;;;;;;4.32;1.25;;;27.20;63.30;;;;;;4897816;29;20045;-73
2022/06/23 16:25:13;;;;;;;4.00;1.05;;;26.90;63.70;;;;;;4919805;29;20028;-72
2022/06/23 16:28:01;;;;;;;3.67;1.20;;;26.80;64.50;;;;;;4935789;29;20079;-72
2022/06/23 16:30:37;;;;;;;5.57;1.27;;;26.70;64.70;;;;;;4935356;29;20020;-72
2022/06/23 16:33:29;;;;;;;2.63;1.05;;;26.60;64.90;;;;;;4924841;29;20028;-72
2022/06/23 16:36:15;;;;;;;2.17;1.05;;;26.50;65.40;;;;;;4907384;29;20107;-72
2022/06/23 16:39:03;;;;;;;4.55;0.80;;;26.40;65.90;;;;;;4897514;29;20482;-72
2022/06/23 16:42:05;;;;;;;3.60;1.25;;;26.40;66.20;;;;;;4897680;29;20021;-72
2022/06/23 16:44:38;;;;;;;5.80;1.40;;;26.40;66.20;;;;;;4928627;29;20057;-72
2022/06/23 16:47:25;;;;;;;5.25;1.20;;;26.30;66.30;;;;;;4917606;29;20071;-72
2022/06/23 16:49:53;;;;;;;3.15;1.20;;;26.30;66.90;;;;;;4933949;29;20027;-72
2022/06/23 16:52:28;;;;;;;3.80;1.48;;;26.20;66.90;;;;;;4935178;29;20028;-72
2022/06/23 16:55:15;;;;;;;8.85;1.30;;;26.10;69.50;;;;;;4935100;29;20036;-72
2022/06/23 16:57:49;;;;;;;4.30;1.17;;;25.90;69.10;;;;;;4897590;29;20072;-72
2022/06/23 17:00:22;;;;;;;4.43;1.08;;;25.90;69.80;;;;;;4913184;29;20040;-72
2022/06/23 17:03:03;;;;;;;3.30;0.80;;;25.80;69.30;;;;;;4916691;29;20057;-72
2022/06/23 17:05:39;;;;;;;5.80;1.52;;;25.80;68.90;;;;;;4916297;29;20355;-72
2022/06/23 17:08:34;;;;;;;6.05;0.95;;;25.80;69.70;;;;;;4922651;29;20393;-72
2022/06/23 17:11:05;;;;;;;3.40;1.00;;;25.80;69.50;;;;;;4902945;29;20056;-72
2022/06/23 17:13:38;;;;;;;8.57;1.00;;;25.70;72.20;;;;;;4916118;29;20485;-73
2022/06/23 17:16:21;;;;;;;7.05;1.42;;;25.60;73.50;;;;;;4919915;29;20256;-72
2022/06/23 17:18:57;;;;;;;6.18;1.27;;;25.50;79.60;;;;;;4919890;29;20035;-72
2022/06/23 17:44:50;;;;;;;8.13;1.92;;;21.60;99.90;;;;;;5131187;28;20578;-71
2022/06/23 17:47:25;;;;;;;5.47;1.80;;;21.40;99.90;;;;;;5057007;28;20053;-71
2022/06/23 17:49:53;;;;;;;11.05;1.92;;;21.40;99.90;;;;;;5047915;28;20041;-72
2022/06/23 17:52:25;;;;;;;4.60;2.00;;;21.60;99.90;;;;;;5064726;28;20078;-72
2022/06/23 17:54:56;;;;;;;5.47;1.77;;;21.50;99.90;;;;;;5053103;28;20080;-73
2022/06/23 17:57:37;;;;;;;4.17;2.03;;;21.40;99.90;;;;;;5046995;28;20393;-71
2022/06/23 18:00:14;;;;;;;3.78;1.80;;;21.60;99.90;;;;;;5048980;28;20017;-71
2022/06/23 18:02:55;;;;;;;12.57;2.60;;;21.80;99.90;;;;;;5067010;28;20083;-71
2022/06/23 18:05:28;;;;;;;9.07;2.65;;;21.80;99.90;;;;;;5067069;28;20064;-71
2022/06/23 18:08:00;;;;;;;5.63;1.92;;;21.70;99.90;;;;;;5052440;28;20060;-71
2022/06/23 18:10:35;;;;;;;7.18;1.92;;;21.80;99.90;;;;;;5053260;28;20575;-71
2022/06/23 18:13:15;;;;;;;7.03;2.25;;;21.80;99.90;;;;;;5067270;28;20033;-74
2022/06/23 18:15:46;;;;;;;10.07;2.45;;;21.70;99.90;;;;;;5055267;28;20095;-72
2022/06/23 18:18:28;;;;;;;6.93;2.55;;;21.60;99.90;;;;;;5047035;28;20464;-72
